Time;durP1;ratioP1;P1;durP2;ratioP2;P2;SDS_P1;SDS_P2;PMS_P1;PMS_P2;Temp;Humidity;BMP_temperature;BMP_pressure;BME280_temperature;BME280_humidity;BME280_pressure;Samples;Min_cycle;Max_cycle;Signal;HPM_P1;HPM_P2
2022/11/02 00:00:59;;;;;;;1.83;0.70;;;;;;;18.91;61.20;97318.44;10553510;28;20032;-29
2022/11/02 00:05:59;;;;;;;1.35;0.60;;;;;;;18.89;61.66;97308.28;10560886;28;20070;-30
2022/11/02 00:11:00;;;;;;;1.53;0.57;;;;;;;18.89;61.21;97310.81;10558644;28;20035;-29
2022/11/02 00:16:03;;;;;;;1.83;0.53;;;;;;;18.89;61.28;97297.25;10566578;28;20076;-29
2022/11/02 00:21:04;;;;;;;1.48;0.65;;;;;;;18.89;61.40;97304.88;10569230;28;20024;-28
2022/11/02 00:26:04;;;;;;;0.70;0.40;;;;;;;18.98;62.82;97312.56;10569731;28;20545;-29
2022/11/02 00:31:05;;;;;;;0.90;0.40;;;;;;;18.98;63.53;97298.19;10569700;28;20478;-30
2022/11/02 00:36:05;;;;;;;1.95;0.63;;;;;;;19.09;63.07;97305.88;10556242;28;20035;-28
2022/11/02 00:41:06;;;;;;;0.95;0.60;;;;;;;19.05;61.42;97309.22;10568989;28;20209;-29
2022/11/02 00:46:06;;;;;;;1.85;0.63;;;;;;;18.98;61.19;97307.47;10564540;28;20027;-29
2022/11/02 00:51:06;;;;;;;1.37;0.70;;;;;;;18.91;61.46;97304.06;10547767;28;20028;-29
2022/11/02 00:56:07;;;;;;;1.10;0.73;;;;;;;18.88;61.31;97306.56;10565931;28;20027;-28
2022/11/02 01:01:08;;;;;;;1.13;0.57;;;;;;;18.88;61.38;97290.50;10551372;28;20128;-29
2022/11/02 01:06:14;;;;;;;1.50;0.70;;;;;;;18.85;61.53;97296.38;10546082;28;20030;-29
2022/11/02 01:11:17;;;;;;;1.92;0.70;;;;;;;18.86;61.47;97298.13;10562056;28;20110;-29
2022/11/02 01:16:18;;;;;;;1.90;0.70;;;;;;;18.85;61.43;97295.56;10543901;28;20032;-28
2022/11/02 01:21:19;;;;;;;1.02;0.68;;;;;;;18.80;61.39;97282.84;10568572;28;20028;-28
2022/11/02 01:26:19;;;;;;;1.45;0.70;;;;;;;18.97;63.23;97280.41;10566141;28;20055;-28
2022/11/02 01:31:20;;;;;;;2.00;0.65;;;;;;;19.01;63.55;97277.06;10557891;28;20034;-28
2022/11/02 01:36:21;;;;;;;1.92;0.52;;;;;;;19.05;61.75;97273.69;10553815;28;20028;-28
2022/11/02 01:41:21;;;;;;;0.95;0.50;;;;;;;19.02;61.46;97273.69;10548781;28;20028;-28
2022/11/02 01:46:29;;;;;;;1.48;0.70;;;;;;;18.95;61.15;97277.88;10560132;28;20615;-28
2022/11/02 01:51:38;;;;;;;1.80;0.70;;;;;;;18.90;61.42;97276.13;10553442;28;20040;-29
2022/11/02 01:56:40;;;;;;;0.82;0.57;;;;;;;18.86;61.46;97276.97;10563329;28;20034;-29
2022/11/02 02:01:41;;;;;;;1.80;0.88;;;;;;;18.82;61.51;97275.25;10547376;28;20494;-28
2022/11/02 02:06:42;;;;;;;0.40;0.40;;;;;;;18.85;61.42;97275.25;10543434;28;20127;-28
2022/11/02 02:11:43;;;;;;;2.20;0.60;;;;;;;18.83;61.32;97282.03;10551893;28;20028;-29
2022/11/02 02:17:17;;;;;;;0.97;0.63;;;;;;;18.83;61.46;97282.03;10561426;28;20020;-30
2022/11/02 02:22:44;;;;;;;1.35;0.70;;;;;;;18.85;61.22;97287.94;10543501;28;20038;-28
2022/11/02 02:28:18;;;;;;;1.67;0.63;;;;;;;18.97;63.45;97290.56;10539077;28;20025;-29
2022/11/02 02:33:34;;;;;;;0.57;0.40;;;;;;;19.01;63.25;97287.22;10534887;28;20052;-28
2022/11/02 02:38:48;;;;;;;0.95;0.75;;;;;;;19.02;61.55;97283.84;10539046;28;20020;-29
2022/11/02 02:43:53;;;;;;;2.63;0.63;;;;;;;18.96;61.43;97274.50;10562692;28;20163;-29
2022/11/02 02:48:57;;;;;;;2.30;0.60;;;;;;;18.90;61.36;97273.59;10566062;28;20028;-28
2022/11/02 02:54:18;;;;;;;2.20;0.70;;;;;;;18.85;61.34;97270.19;10540415;28;20127;-30
2022/11/02 02:59:23;;;;;;;1.30;0.60;;;;;;;18.84;61.25;97273.56;10558603;28;20069;-29
2022/11/02 03:04:24;;;;;;;1.77;0.60;;;;;;;18.82;61.25;97265.09;10544993;28;20028;-28
2022/11/02 03:09:34;;;;;;;1.98;0.70;;;;;;;18.83;61.39;97267.63;10541674;28;20037;-29
2022/11/02 03:14:44;;;;;;;0.93;0.50;;;;;;;18.81;61.29;97261.69;10543814;28;20024;-28
2022/11/02 03:20:25;;;;;;;1.48;0.50;;;;;;;18.81;61.29;97269.31;10533570;28;20525;-30
2022/11/02 03:25:48;;;;;;;8.05;0.98;;;;;;;18.89;62.03;97269.34;10494148;28;20089;-28
2022/11/02 03:30:58;;;;;;;1.75;1.13;;;;;;;18.93;63.46;97266.03;10536629;28;20375;-28
2022/11/02 03:36:11;;;;;;;1.05;0.50;;;;;;;18.99;63.34;97288.91;10530756;28;20040;-29
2022/11/02 03:41:15;;;;;;;1.13;0.63;;;;;;;19.01;61.14;97289.75;10562219;28;20040;-29
2022/11/02 03:46:18;;;;;;;1.02;0.52;;;;;;;18.91;61.17;97295.63;10533390;28;20024;-29
2022/11/02 03:51:22;;;;;;;1.25;0.52;;;;;;;18.86;60.98;97303.19;10542877;28;20077;-29
2022/11/02 03:56:58;;;;;;;1.30;0.70;;;;;;;18.83;61.09;97307.38;10541364;28;20054;-29
2022/11/02 04:02:00;;;;;;;0.95;0.70;;;;;;;18.79;61.19;97305.66;10486323;28;20162;-29
2022/11/02 04:07:02;;;;;;;1.45;0.70;;;;;;;18.80;61.06;97312.41;10539856;28;20037;-28
2022/11/02 04:28:08;;;;;;;0.63;0.40;;;;;;;18.88;63.01;97331.09;10544611;28;20024;-28
2022/11/02 04:33:32;;;;;;;1.65;0.68;;;;;;;18.94;63.18;97331.16;10535622;28;20402;-29
2022/11/02 04:38:50;;;;;;;1.10;0.73;;;;;;;18.98;63.21;97336.25;10536628;28;20549;-29
2022/11/02 04:43:58;;;;;;;1.25;0.65;;;;;;;18.94;61.07;97332.00;10540657;28;20100;-29
2022/11/02 04:48:59;;;;;;;2.63;0.90;;;;;;;18.90;61.02;97352.25;10550409;28;20035;-29
2022/11/02 04:54:01;;;;;;;2.42;1.00;;;;;;;18.85;61.02;97361.53;10540032;28;20039;-28
2022/11/02 04:59:02;;;;;;;1.00;0.60;;;;;;;18.82;61.02;97361.50;10536380;28;20030;-29
2022/11/02 05:04:09;;;;;;;1.30;0.60;;;;;;;18.77;61.02;97360.59;10543627;28;20500;-28
2022/11/02 05:09:10;;;;;;;1.20;0.60;;;;;;;18.79;60.99;97367.41;10547760;28;20123;-28
2022/11/02 05:14:16;;;;;;;;;;;;;;;18.73;61.03;97357.19;10545799;28;20016;-28
2022/11/02 05:19:17;;;;;;;2.17;0.70;;;;;;;18.77;61.01;97368.22;10527576;28;19919;-29
2022/11/02 05:24:17;;;;;;;2.35;1.10;;;;;;;18.79;61.06;97372.47;10536761;28;20676;-29
2022/11/02 05:29:18;;;;;;;1.40;0.50;;;;;;;18.78;61.09;97370.78;10533772;27;20114;-28
2022/11/02 05:34:18;;;;;;;1.52;0.40;;;;;;;18.89;63.42;97379.31;10561856;28;20103;-28
2022/11/02 05:39:19;;;;;;;2.42;0.73;;;;;;;18.87;63.25;97370.84;10546134;28;20036;-31
2022/11/02 05:44:21;;;;;;;2.63;1.00;;;;;;;18.97;61.93;97384.44;10546055;28;20512;-29
2022/11/02 05:49:21;;;;;;;1.98;0.65;;;;;;;18.90;60.97;97375.06;10546689;28;20027;-29
2022/11/02 05:54:22;;;;;;;3.37;0.80;;;;;;;18.87;61.73;97375.06;10561108;28;20031;-29
2022/11/02 05:59:22;;;;;;;4.63;0.70;;;;;;;18.92;61.65;97378.50;10559690;28;20034;-29
2022/11/02 06:04:23;;;;;;;5.87;1.40;;;;;;;18.82;61.80;97381.81;10554269;27;20401;-29
2022/11/02 06:09:23;;;;;;;2.90;0.70;;;;;;;18.91;61.28;97386.97;10555191;27;20274;-29
2022/11/02 06:14:23;;;;;;;5.47;0.90;;;;;;;18.91;61.16;97384.41;10565033;28;20040;-29
2022/11/02 06:19:24;;;;;;;3.40;0.83;;;;;;;18.78;61.44;97372.44;10562809;28;20036;-28
2022/11/02 06:24:24;;;;;;;1.77;0.70;;;;;;;18.91;61.39;97400.47;10565357;28;20092;-28
2022/11/02 06:29:24;;;;;;;5.18;0.90;;;;;;;18.93;61.63;97418.25;10562724;28;20452;-29
2022/11/02 06:34:25;;;;;;;1.40;0.70;;;;;;;18.94;63.19;97412.34;10553007;28;20555;-29
2022/11/02 06:39:25;;;;;;;3.97;0.77;;;;;;;18.98;63.30;97412.38;10560307;28;20288;-29
2022/11/02 06:44:26;;;;;;;2.03;0.60;;;;;;;19.02;63.03;97425.94;10557918;28;20046;-29
2022/11/02 06:49:26;;;;;;;7.53;1.05;;;;;;;19.00;61.97;97437.78;10559071;28;20032;-29
2022/11/02 06:54:27;;;;;;;2.50;0.70;;;;;;;18.93;62.04;97436.03;10561921;28;20028;-29
2022/11/02 06:59:27;;;;;;;4.83;0.70;;;;;;;18.93;61.80;97446.16;10562724;28;20059;-29
2022/11/02 07:04:27;;;;;;;4.93;0.83;;;;;;;18.90;61.73;97446.97;10561021;28;20405;-29
2022/11/02 07:09:28;;;;;;;4.60;0.70;;;;;;;18.93;61.85;97458.84;10559373;28;20550;-29
2022/11/02 07:14:28;;;;;;;2.87;0.60;;;;;;;18.92;62.16;97462.25;10561925;28;20433;-29
2022/11/02 07:19:28;;;;;;;3.03;0.70;;;;;;;18.87;62.04;97469.81;10555263;28;20562;-29
2022/11/02 07:24:29;;;;;;;4.28;1.15;;;;;;;18.90;62.06;97471.50;10554648;28;20092;-29
2022/11/02 07:29:29;;;;;;;2.40;0.70;;;;;;;18.89;61.69;97477.41;10560895;28;20054;-28
2022/11/02 07:34:30;;;;;;;4.40;0.70;;;;;;;18.85;62.85;97473.16;10559578;28;20031;-29
2022/11/02 07:39:30;;;;;;;6.30;0.80;;;;;;;18.95;63.22;97485.09;10545280;28;20540;-29
2022/11/02 07:44:30;;;;;;;1.88;0.73;;;;;;;18.96;63.33;97486.78;10546595;28;20161;-30
2022/11/02 07:49:31;;;;;;;2.67;0.73;;;;;;;18.97;62.05;97493.56;10548841;28;20110;-30
2022/11/02 07:54:31;;;;;;;4.27;0.73;;;;;;;18.95;62.17;97490.16;10545890;28;20023;-28
2022/11/02 07:59:31;;;;;;;2.87;0.50;;;;;;;18.90;61.83;97489.25;10552047;28;20073;-29
2022/11/02 08:04:32;;;;;;;2.37;0.80;;;;;;;18.89;61.93;97511.25;10549021;28;20047;-29
2022/11/02 08:09:32;;;;;;;2.87;0.83;;;;;;;18.89;61.81;97520.53;10549769;28;20273;-29
2022/11/02 08:14:33;;;;;;;4.53;1.00;;;;;;;18.87;61.77;97515.47;10549725;28;20128;-29
2022/11/02 08:19:33;;;;;;;3.60;1.07;;;;;;;18.87;61.84;97523.09;10552922;28;20043;-29
2022/11/02 08:24:34;;;;;;;3.90;0.60;;;;;;;18.87;61.96;97512.94;10557775;28;20094;-29
2022/11/02 08:29:35;;;;;;;2.20;0.80;;;;;;;18.86;61.64;97516.31;10550391;28;20038;-30
2022/11/02 08:34:36;;;;;;;6.13;1.80;;;;;;;18.87;61.43;97512.06;10560122;28;20470;-29
2022/11/02 08:39:36;;;;;;;6.70;0.90;;;;;;;18.89;63.05;97516.34;10566544;28;20041;-29
2022/11/02 08:44:36;;;;;;;5.77;1.53;;;;;;;18.99;63.50;97520.66;10555096;27;20043;-30
2022/11/02 08:49:37;;;;;;;8.80;2.10;;;;;;;19.01;63.25;97511.38;10567063;28;20281;-28
2022/11/02 08:54:37;;;;;;;9.60;2.40;;;;;;;18.99;63.40;97520.66;10571163;28;20035;-29
2022/11/02 08:59:37;;;;;;;13.40;1.60;;;;;;;18.79;63.05;97512.00;10564715;28;20098;-29
2022/11/02 09:04:38;;;;;;;52.57;4.93;;;;;;;18.85;62.71;97518.81;10569507;28;20161;-29
2022/11/02 09:09:38;;;;;;;37.22;4.75;;;;;;;18.85;62.43;97511.22;10571494;28;20564;-29
2022/11/02 09:14:39;;;;;;;29.25;3.63;;;;;;;18.82;61.99;97513.72;10558786;28;20074;-29
2022/11/02 09:19:40;;;;;;;11.70;1.57;;;;;;;18.73;61.23;97503.44;10566683;28;20051;-29
2022/11/02 09:24:40;;;;;;;9.13;1.48;;;;;;;18.79;60.82;97511.13;10563517;28;20294;-28
2022/11/02 09:29:40;;;;;;;7.33;1.67;;;;;;;18.78;60.53;97501.81;10567670;28;20339;-28
2022/11/02 09:34:41;;;;;;;3.53;1.30;;;;;;;18.00;55.87;97506.69;10561692;28;20016;-28
2022/11/02 09:39:41;;;;;;;3.37;0.97;;;;;;;17.80;54.66;97492.03;10568712;28;20037;-28
2022/11/02 09:44:49;;;;;;;10.00;1.47;;;;;;;17.52;55.02;97505.09;10565681;28;20183;-29
2022/11/02 09:49:51;;;;;;;6.18;1.40;;;;;;;17.65;55.45;97507.84;10558657;28;20023;-28
2022/11/02 09:54:55;;;;;;;5.90;1.90;;;;;;;17.55;54.95;97508.53;10568221;28;20068;-29
2022/11/02 09:59:56;;;;;;;5.60;1.40;;;;;;;18.15;55.27;97508.63;10559730;28;20036;-29
2022/11/02 10:05:02;;;;;;;9.57;1.88;;;;;;;18.36;55.84;97502.19;10551928;28;20035;-28
2022/11/02 10:10:08;;;;;;;5.88;1.02;;;;;;;18.46;56.84;97500.59;10553064;28;20072;-28
2022/11/02 10:15:18;;;;;;;3.33;0.90;;;;;;;18.49;57.20;97496.41;10565572;28;20425;-28
2022/11/02 10:20:29;;;;;;;11.75;2.35;;;;;;;18.49;58.68;97493.03;10544764;27;20048;-29
2022/11/02 10:25:30;;;;;;;4.82;1.17;;;;;;;18.62;57.56;97495.72;10570194;28;20535;-29
2022/11/02 10:30:31;;;;;;;8.23;1.30;;;;;;;18.66;57.96;97489.00;10557620;28;20073;-29
2022/11/02 10:35:31;;;;;;;6.97;1.50;;;;;;;18.68;58.27;97489.88;10558527;28;20024;-29
2022/11/02 10:41:00;;;;;;;6.10;1.23;;;;;;;18.68;58.50;97485.63;10564405;28;20035;-28
2022/11/02 10:46:09;;;;;;;5.88;2.30;;;;;;;18.69;58.81;97479.75;10551291;28;20414;-29
2022/11/02 10:51:12;;;;;;;5.63;1.17;;;;;;;18.79;61.15;97471.41;10568396;28;20043;-28
2022/11/02 10:56:20;;;;;;;2.97;1.02;;;;;;;18.84;61.45;97462.13;10566665;28;20508;-29
2022/11/02 11:01:21;;;;;;;4.82;1.33;;;;;;;18.82;60.24;97468.91;10555925;28;20114;-29
2022/11/02 11:06:23;;;;;;;3.73;1.10;;;;;;;18.78;59.89;97461.22;10564866;28;20028;-28
2022/11/02 11:11:28;;;;;;;4.32;1.73;;;;;;;18.74;59.93;97450.19;10560748;28;20042;-28
2022/11/02 11:16:35;;;;;;;2.80;1.17;;;;;;;18.73;59.87;97456.13;10558477;28;20026;-28
2022/11/02 11:21:39;;;;;;;1.60;0.80;;;;;;;18.73;59.90;97457.78;10562447;28;20080;-29
2022/11/02 11:26:39;;;;;;;3.33;0.93;;;;;;;18.72;60.05;97456.09;10557781;28;20489;-29
2022/11/02 11:31:40;;;;;;;1.70;0.60;;;;;;;18.72;60.05;97451.00;10562160;28;20042;-29
2022/11/02 11:36:40;;;;;;;1.73;0.80;;;;;;;18.74;60.03;97439.22;10555879;28;20107;-29
2022/11/02 11:41:41;;;;;;;3.15;1.48;;;;;;;18.75;60.21;97440.91;10563827;28;20031;-28
2022/11/02 11:46:46;;;;;;;4.18;1.63;;;;;;;18.74;60.08;97429.91;10558580;28;20027;-28
2022/11/02 11:51:51;;;;;;;3.13;1.13;;;;;;;18.75;61.63;97428.22;10553483;28;20024;-29
2022/11/02 11:56:54;;;;;;;2.85;1.10;;;;;;;18.86;62.15;97419.03;10561555;28;20027;-28
2022/11/02 12:01:57;;;;;;;3.63;0.82;;;;;;;18.89;62.19;97421.59;10555793;28;20410;-30
2022/11/02 12:07:27;;;;;;;3.72;2.50;;;;;;;18.84;60.92;97415.63;10561082;28;20085;-28
2022/11/02 12:12:36;;;;;;;5.25;1.30;;;;;;;18.79;60.60;97412.19;10572659;28;20035;-28
2022/11/02 12:18:00;;;;;;;3.40;1.65;;;;;;;18.72;60.93;97395.22;10571823;28;20036;-29
2022/11/02 12:23:07;;;;;;;12.00;2.72;;;;;;;18.73;61.58;97387.63;10550659;28;20681;-28
2022/11/02 12:28:22;;;;;;;11.30;1.88;;;;;;;18.77;61.24;97373.28;10571738;28;20038;-29
2022/11/02 12:33:54;;;;;;;6.15;1.75;;;;;;;18.75;61.13;97380.88;10560943;28;20035;-29
2022/11/02 12:39:02;;;;;;;7.03;1.27;;;;;;;18.70;61.16;97366.44;10532332;28;20579;-28
2022/11/02 12:44:45;;;;;;;7.18;1.58;;;;;;;18.74;61.28;97370.72;10572633;28;20043;-30
2022/11/02 12:50:08;;;;;;;5.07;1.55;;;;;;;18.73;61.41;97366.47;10503825;28;20043;-29
2022/11/02 12:55:22;;;;;;;8.30;1.20;;;;;;;18.73;61.93;97366.47;10572560;28;20523;-28
2022/11/02 13:00:23;;;;;;;3.13;1.45;;;;;;;18.86;63.40;97370.81;10566720;28;20028;-29
2022/11/02 13:05:31;;;;;;;3.28;0.93;;;;;;;18.90;63.16;97364.94;10571401;28;20470;-28
2022/11/02 13:10:39;;;;;;;3.70;1.30;;;;;;;18.89;62.65;97358.16;10566964;28;20572;-29
2022/11/02 13:15:41;;;;;;;5.32;1.55;;;;;;;18.86;61.87;97359.00;10563396;28;20055;-28
2022/11/02 13:20:48;;;;;;;3.85;1.00;;;;;;;18.81;61.63;97349.63;10557900;28;20034;-29
2022/11/02 13:25:58;;;;;;;4.10;1.00;;;;;;;18.78;61.64;97349.63;10572492;28;20039;-28
2022/11/02 13:30:58;;;;;;;3.10;1.10;;;;;;;18.77;61.76;97347.91;10563083;28;20085;-29
2022/11/02 13:35:59;;;;;;;2.53;0.90;;;;;;;18.76;61.66;97346.22;10559716;28;20405;-29
2022/11/02 13:41:08;;;;;;;2.90;1.03;;;;;;;18.75;61.66;97339.44;10560581;28;20043;-28
2022/11/02 13:46:41;;;;;;;1.92;1.05;;;;;;;18.74;61.74;97337.75;10564078;28;20570;-28
2022/11/02 13:51:50;;;;;;;2.25;0.90;;;;;;;18.73;61.84;97331.81;10559786;28;20040;-29
2022/11/02 13:56:54;;;;;;;4.00;1.15;;;;;;;18.72;61.87;97330.13;10567774;28;20506;-29
2022/11/02 14:01:56;;;;;;;2.75;1.27;;;;;;;18.76;63.32;97329.28;10555920;28;20028;-29
2022/11/02 14:07:04;;;;;;;5.57;1.10;;;;;;;18.88;63.87;97326.00;10565107;28;20093;-29
2022/11/02 14:12:26;;;;;;;1.02;0.70;;;;;;;18.93;63.64;97329.44;10567194;28;20038;-28
2022/11/02 14:17:26;;;;;;;1.75;0.82;;;;;;;18.89;62.59;97322.63;10565664;28;20034;-28
2022/11/02 14:22:29;;;;;;;3.15;1.02;;;;;;;18.82;61.63;97316.66;10561901;28;20486;-28
2022/11/02 14:27:30;;;;;;;2.47;0.90;;;;;;;18.78;61.83;97314.97;10565279;28;20039;-28
2022/11/02 14:32:41;;;;;;;1.67;0.85;;;;;;;18.77;61.73;97314.94;10562704;28;20505;-28
2022/11/02 14:37:56;;;;;;;5.15;1.08;;;;;;;18.77;61.72;97314.94;10564465;28;20534;-28
2022/11/02 14:43:02;;;;;;;1.92;1.08;;;;;;;18.76;61.80;97318.31;10561777;28;20036;-29
2022/11/02 14:48:05;;;;;;;1.33;0.68;;;;;;;18.73;62.00;97313.19;10555446;28;20459;-28
2022/11/02 14:53:08;;;;;;;0.60;0.50;;;;;;;18.67;61.97;97301.31;10562861;28;20034;-29
2022/11/02 14:58:19;;;;;;;2.72;0.98;;;;;;;18.72;61.98;97304.75;10562886;28;20058;-29
2022/11/02 15:03:22;;;;;;;1.17;0.75;;;;;;;18.73;61.93;97303.06;10562934;28;20034;-29
2022/11/02 15:08:27;;;;;;;3.78;0.77;;;;;;;18.82;63.98;97287.94;10562512;28;20435;-29
2022/11/02 15:13:34;;;;;;;3.30;0.70;;;;;;;18.89;63.99;97300.66;10553382;28;20371;-29
2022/11/02 15:18:36;;;;;;;1.17;0.75;;;;;;;18.87;63.32;97284.59;10563371;28;20069;-29
2022/11/02 15:23:45;;;;;;;2.08;0.80;;;;;;;18.86;62.64;97285.44;10561012;28;20051;-28
2022/11/02 15:28:48;;;;;;;2.70;0.70;;;;;;;18.82;61.84;97282.88;10557510;28;20081;-28
2022/11/02 15:33:53;;;;;;;2.83;0.60;;;;;;;18.80;62.15;97281.97;10560983;28;20035;-29
2022/11/02 15:38:55;;;;;;;0.70;0.70;;;;;;;18.71;61.88;97275.16;10556143;28;20034;-29
2022/11/02 15:44:36;;;;;;;1.55;0.60;;;;;;;18.75;61.96;97281.09;10563673;28;20038;-28
2022/11/02 15:50:13;;;;;;;2.53;0.80;;;;;;;18.74;61.74;97276.88;10556065;28;20058;-28
2022/11/02 15:55:19;;;;;;;0.70;0.40;;;;;;;18.72;62.06;97274.31;10560446;28;20032;-29
2022/11/02 16:00:23;;;;;;;2.13;0.50;;;;;;;18.71;62.01;97267.56;10556758;28;20046;-28
2022/11/02 16:05:26;;;;;;;2.08;0.70;;;;;;;18.71;61.94;97276.84;10563763;28;20116;-28
2022/11/02 16:10:28;;;;;;;1.73;0.60;;;;;;;18.71;62.04;97257.41;10560479;28;20035;-28
2022/11/02 16:15:29;;;;;;;1.33;0.60;;;;;;;18.84;64.14;97255.81;10550291;28;20027;-28
2022/11/02 16:20:34;;;;;;;1.67;0.60;;;;;;;18.90;63.57;97265.97;10562307;28;20030;-28
2022/11/02 16:25:43;;;;;;;1.17;0.60;;;;;;;18.85;62.46;97252.44;10557978;28;20063;-28
2022/11/02 16:31:09;;;;;;;1.08;0.80;;;;;;;18.80;62.01;97243.91;10547425;28;20032;-29
2022/11/02 16:36:38;;;;;;;2.33;0.70;;;;;;;18.80;62.03;97251.53;10552715;28;20028;-29
2022/11/02 16:41:39;;;;;;;1.85;0.70;;;;;;;18.78;62.55;97253.22;10554170;28;20410;-29
2022/11/02 16:46:49;;;;;;;0.60;0.40;;;;;;;18.77;61.91;97246.44;10556347;28;20080;-29
2022/11/02 16:51:55;;;;;;;1.77;0.82;;;;;;;18.74;62.14;97251.50;10552976;28;20122;-29
2022/11/02 16:57:05;;;;;;;1.20;0.60;;;;;;;18.74;62.51;97248.97;10565055;28;20426;-28
2022/11/02 17:02:10;;;;;;;1.42;0.73;;;;;;;18.70;61.95;97247.22;10564035;28;20039;-28
2022/11/02 17:07:22;;;;;;;1.83;0.50;;;;;;;18.71;61.97;97239.66;10569819;28;20088;-29
2022/11/02 17:12:31;;;;;;;2.60;0.68;;;;;;;18.72;61.98;97237.94;10565783;28;20031;-28
2022/11/02 17:17:38;;;;;;;1.33;0.68;;;;;;;18.74;63.47;97233.75;10568287;28;20076;-28
2022/11/02 17:22:57;;;;;;;0.50;0.50;;;;;;;18.85;63.71;97235.50;10566948;28;20442;-29
2022/11/02 17:28:00;;;;;;;3.03;1.15;;;;;;;18.86;63.73;97233.81;10556552;28;20406;-28
2022/11/02 17:33:07;;;;;;;1.48;0.60;;;;;;;18.83;62.51;97228.75;10565939;28;20050;-29
2022/11/02 17:38:08;;;;;;;0.98;0.50;;;;;;;18.77;62.45;97210.94;10561388;28;20023;-28
2022/11/02 17:43:08;;;;;;;0.70;0.50;;;;;;;18.79;62.84;97219.41;10569725;28;20028;-29
2022/11/02 17:48:09;;;;;;;1.63;0.63;;;;;;;18.75;62.59;97217.69;10564029;28;20034;-28
2022/11/02 17:53:11;;;;;;;1.30;0.60;;;;;;;18.66;62.28;97213.38;10563036;28;20395;-30
2022/11/02 17:58:12;;;;;;;2.17;0.60;;;;;;;18.73;62.37;97211.75;10555331;28;20032;-28
2022/11/02 18:03:16;;;;;;;2.00;0.50;;;;;;;18.71;62.76;97223.56;10545045;28;20031;-29
2022/11/02 18:08:16;;;;;;;3.67;0.75;;;;;;;18.77;62.76;97231.22;10548152;28;20024;-30
2022/11/02 18:13:22;;;;;;;4.97;0.88;;;;;;;18.77;62.61;97221.91;10550043;28;20031;-29
2022/11/02 18:18:23;;;;;;;2.07;0.60;;;;;;;18.61;62.33;97192.25;10552794;28;20108;-29
2022/11/02 18:23:23;;;;;;;1.83;0.57;;;;;;;18.79;63.54;97219.41;10556693;28;20071;-28
2022/11/02 18:28:23;;;;;;;0.70;0.53;;;;;;;18.86;63.58;97222.00;10552417;28;20401;-28
2022/11/02 18:33:24;;;;;;;0.53;0.30;;;;;;;18.86;63.53;97216.06;10565304;28;20470;-28
2022/11/02 18:38:24;;;;;;;0.73;0.50;;;;;;;18.82;63.31;97219.44;10563486;28;20547;-29
2022/11/02 18:43:24;;;;;;;0.80;0.53;;;;;;;18.81;63.08;97215.16;10559217;28;20035;-28
2022/11/02 18:48:25;;;;;;;0.63;0.40;;;;;;;18.79;63.21;97209.25;10562372;28;20042;-29
2022/11/02 18:53:25;;;;;;;1.90;0.80;;;;;;;18.77;63.31;97211.75;10559246;28;20032;-28
2022/11/02 18:58:25;;;;;;;1.30;0.60;;;;;;;18.79;63.31;97204.19;10554231;28;20024;-29
2022/11/02 19:03:26;;;;;;;1.03;0.50;;;;;;;18.78;63.26;97202.47;10538766;28;20036;-28
2022/11/02 19:13:45;;;;;;;1.10;0.60;;;;;;;18.72;63.41;97194.81;10552185;28;20506;-29
2022/11/02 19:18:46;;;;;;;0.93;0.40;;;;;;;18.77;63.34;97205.88;10556298;28;20035;-29
2022/11/02 19:23:46;;;;;;;1.90;0.73;;;;;;;18.72;63.59;97197.34;10558124;28;20118;-28
2022/11/02 19:28:46;;;;;;;2.37;0.80;;;;;;;18.78;63.71;97208.41;10565427;28;20032;-28
2022/11/02 19:33:47;;;;;;;1.10;0.70;;;;;;;18.83;63.80;97195.75;10557000;28;20039;-29
2022/11/02 19:38:47;;;;;;;1.27;0.60;;;;;;;18.83;63.52;97191.53;10560075;28;20292;-28
2022/11/02 19:43:48;;;;;;;1.00;0.40;;;;;;;18.78;62.88;97179.66;10559287;28;20294;-28
2022/11/02 19:48:49;;;;;;;1.00;0.50;;;;;;;18.79;63.03;97183.88;10555815;28;20046;-28
2022/11/02 19:53:53;;;;;;;1.55;0.70;;;;;;;18.78;63.22;97180.50;10559073;28;20337;-28
2022/11/02 19:58:55;;;;;;;1.45;0.50;;;;;;;18.74;63.27;97170.34;10562706;28;20560;-29
2022/11/02 20:03:56;;;;;;;0.77;0.57;;;;;;;18.75;63.36;97161.88;10551237;28;20035;-29
2022/11/02 20:08:57;;;;;;;2.63;0.98;;;;;;;18.75;63.40;97164.44;10558553;28;20455;-28
2022/11/02 20:14:00;;;;;;;1.20;0.50;;;;;;;18.74;63.42;97161.03;10562940;28;20039;-28
2022/11/02 20:19:01;;;;;;;0.75;0.40;;;;;;;18.73;63.48;97158.47;10556066;28;20508;-29
2022/11/02 20:24:02;;;;;;;1.35;0.60;;;;;;;18.73;63.44;97154.25;10557908;28;20134;-28
2022/11/02 20:29:03;;;;;;;1.02;0.40;;;;;;;18.72;63.43;97152.56;10562678;28;20023;-29
2022/11/02 20:34:07;;;;;;;0.40;0.30;;;;;;;18.74;63.50;97155.13;10565925;28;20035;-29
2022/11/02 20:39:09;;;;;;;0.75;0.50;;;;;;;18.80;63.56;97155.13;10564511;28;20397;-29
2022/11/02 20:44:10;;;;;;;0.82;0.38;;;;;;;18.79;63.54;97139.09;10564303;28;20027;-29
2022/11/02 20:49:10;;;;;;;0.87;0.40;;;;;;;18.80;62.83;97145.00;10568831;28;20467;-29
2022/11/02 20:54:11;;;;;;;1.20;0.68;;;;;;;18.78;63.13;97141.59;10563236;28;20407;-29
2022/11/02 20:59:12;;;;;;;1.13;0.47;;;;;;;18.75;63.23;97136.53;10561454;28;20446;-29
2022/11/02 21:04:12;;;;;;;0.60;0.40;;;;;;;18.74;63.22;97134.84;10544121;28;20028;-28
2022/11/02 21:09:13;;;;;;;0.50;0.40;;;;;;;18.73;63.50;97135.63;10571072;28;20139;-29
2022/11/02 21:14:13;;;;;;;0.97;0.20;;;;;;;18.73;63.47;97122.97;10564812;28;20031;-29
2022/11/02 21:19:13;;;;;;;0.75;0.50;;;;;;;18.74;63.49;97122.16;10560219;28;20034;-29
2022/11/02 21:24:14;;;;;;;0.73;0.33;;;;;;;18.72;63.09;97111.13;10565381;28;20422;-29
2022/11/02 21:29:14;;;;;;;0.60;0.50;;;;;;;18.73;63.33;97112.81;10566637;28;20409;-28
2022/11/02 21:34:15;;;;;;;1.33;0.60;;;;;;;18.71;63.55;97115.38;10565701;28;20028;-29
2022/11/02 21:39:15;;;;;;;0.73;0.40;;;;;;;18.72;63.42;97117.06;10564127;28;20035;-28
2022/11/02 21:44:15;;;;;;;1.60;0.40;;;;;;;18.74;63.40;97102.69;10563330;28;20513;-29
2022/11/02 21:49:16;;;;;;;0.53;0.30;;;;;;;18.78;63.45;97108.63;10567785;28;20035;-29
2022/11/02 21:54:16;;;;;;;0.80;0.33;;;;;;;18.75;62.63;97101.00;10561504;28;20798;-29
2022/11/02 21:59:16;;;;;;;0.30;0.30;;;;;;;18.76;62.43;97097.63;10567355;28;20314;-28
2022/11/02 22:04:27;;;;;;;0.73;0.50;;;;;;;18.74;62.42;97089.16;10549484;28;20118;-28
2022/11/02 22:09:27;;;;;;;0.50;0.38;;;;;;;18.74;62.28;97079.03;10560972;28;20043;-29
2022/11/02 22:14:28;;;;;;;1.60;0.60;;;;;;;18.73;62.28;97079.84;10558558;28;20036;-29
2022/11/02 22:19:28;;;;;;;1.60;0.70;;;;;;;18.74;62.29;97084.09;10555277;28;20077;-28
2022/11/02 22:24:29;;;;;;;1.00;0.40;;;;;;;18.74;62.17;97079.03;10559853;28;20198;-29
2022/11/02 22:29:29;;;;;;;0.80;0.53;;;;;;;18.73;62.19;97079.84;10559033;28;20028;-28
2022/11/02 22:34:29;;;;;;;1.13;0.40;;;;;;;18.72;63.12;97085.75;10554491;28;20028;-28
2022/11/02 22:39:30;;;;;;;1.90;0.33;;;;;;;18.69;61.92;97081.53;10554041;28;20031;-29
2022/11/02 22:44:30;;;;;;;2.57;0.30;;;;;;;18.70;62.85;97078.16;10552447;28;20039;-29
2022/11/02 22:49:30;;;;;;;2.60;0.60;;;;;;;18.73;63.54;97077.31;10559425;28;20031;-29
2022/11/02 22:54:31;;;;;;;1.17;0.45;;;;;;;18.74;63.11;97081.56;10555857;28;20031;-29
2022/11/02 22:59:31;;;;;;;0.80;0.50;;;;;;;18.73;61.92;97082.38;10561072;28;20919;-29
2022/11/02 23:04:31;;;;;;;1.70;0.40;;;;;;;18.70;61.67;97082.38;10565075;28;20031;-29
2022/11/02 23:09:32;;;;;;;1.33;0.60;;;;;;;18.68;61.15;97068.84;10559457;28;20036;-28
2022/11/02 23:14:32;;;;;;;0.60;0.50;;;;;;;18.68;60.86;97063.78;10560078;28;20031;-29
2022/11/02 23:19:36;;;;;;;0.93;0.60;;;;;;;18.66;60.56;97060.38;10560926;28;20332;-29
2022/11/02 23:40:34;;;;;;;1.85;0.60;;;;;;;18.64;59.96;97027.41;10559349;28;20032;-29
2022/11/02 23:45:35;;;;;;;0.90;0.67;;;;;;;18.63;59.82;97030.78;10559970;28;20460;-29
